Time;durP1;ratioP1;P1;durP2;ratioP2;P2;SDS_P1;SDS_P2;PMS_P1;PMS_P2;Temp;Humidity;BMP_temperature;BMP_pressure;BME280_temperature;BME280_humidity;BME280_pressure;Samples;Min_cycle;Max_cycle;Signal;HPM_P1;HPM_P2
2021/06/11 00:01:45;;;;;;;7.85;7.05;;;;;;;;;;5116972;28;20024;-72
2021/06/11 00:04:11;;;;;;;9.23;6.50;;;;;;;;;;5117177;28;20028;-71
2021/06/11 00:06:37;;;;;;;13.15;6.47;;;;;;;;;;5116629;28;20412;-72
2021/06/11 00:09:04;;;;;;;9.45;6.55;;;;;;;;;;5116614;28;20384;-72
2021/06/11 00:11:30;;;;;;;10.10;6.55;;;;;;;;;;5117348;28;20058;-72
2021/06/11 00:13:56;;;;;;;7.70;6.53;;;;;;;;;;5117050;28;20031;-71
2021/06/11 00:16:22;;;;;;;7.57;6.88;;;;;;;;;;5116439;28;20366;-72
2021/06/11 00:18:48;;;;;;;8.73;6.97;;;;;;;;;;5116966;28;20427;-73
2021/06/11 00:21:14;;;;;;;9.73;7.60;;;;;;;;;;5117050;28;20024;-72
2021/06/11 00:23:40;;;;;;;9.07;7.40;;;;;;;;;;5116923;28;20386;-71
2021/06/11 00:26:06;;;;;;;10.35;7.38;;;;;;;;;;5116882;28;20100;-72
2021/06/11 00:28:32;;;;;;;8.00;6.53;;;;;;;;;;5116714;28;20101;-72
2021/06/11 00:30:58;;;;;;;9.65;7.10;;;;;;;;;;5116895;28;20039;-72
2021/06/11 00:33:24;;;;;;;7.60;6.47;;;;;;;;;;5116704;28;20355;-72
2021/06/11 00:35:51;;;;;;;7.07;6.38;;;;;;;;;;5116604;28;20032;-72
2021/06/11 00:38:17;;;;;;;9.40;6.50;;;;;;;;;;5116266;28;20023;-72
2021/06/11 00:40:44;;;;;;;7.65;6.45;;;;;;;;;;5116390;28;20080;-72
2021/06/11 00:43:12;;;;;;;16.02;6.50;;;;;;;;;;5116111;28;20059;-72
2021/06/11 00:45:38;;;;;;;9.13;6.15;;;;;;;;;;5115970;28;20365;-72
2021/06/11 00:48:05;;;;;;;10.50;7.53;;;;;;;;;;5116501;28;20030;-72
2021/06/11 00:50:31;;;;;;;14.82;6.65;;;;;;;;;;5116461;28;20054;-73
2021/06/11 00:52:57;;;;;;;9.77;7.10;;;;;;;;;;5116022;28;20031;-72
2021/06/11 00:55:23;;;;;;;7.47;6.78;;;;;;;;;;5115905;28;20135;-72
2021/06/11 00:57:49;;;;;;;7.50;6.80;;;;;;;;;;5116440;28;20027;-72
2021/06/11 01:00:16;;;;;;;8.05;6.20;;;;;;;;;;5115597;28;20042;-73
2021/06/11 01:02:42;;;;;;;10.00;6.13;;;;;;;;;;5116041;28;20440;-72
2021/06/11 01:05:08;;;;;;;6.55;5.82;;;;;;;;;;5116724;28;20028;-73
2021/06/11 01:07:34;;;;;;;6.90;6.20;;;;;;;;;;5116621;28;20542;-72
2021/06/11 01:10:00;;;;;;;6.60;5.80;;;;;;;;;;5116184;28;20027;-72
2021/06/11 01:12:26;;;;;;;9.43;6.43;;;;;;;;;;5115777;28;20020;-72
2021/06/11 01:14:53;;;;;;;11.02;7.10;;;;;;;;;;5115715;28;20473;-71
2021/06/11 01:17:19;;;;;;;8.93;6.72;;;;;;;;;;5115676;28;20032;-71
2021/06/11 01:19:46;;;;;;;7.15;6.28;;;;;;;;;;5115032;28;20039;-72
2021/06/11 01:22:17;;;;;;;9.95;6.80;;;;;;;;;;5115822;28;20031;-72
2021/06/11 01:25:03;;;;;;;6.57;5.85;;;;;;;;;;5115611;28;20362;-72
2021/06/11 01:27:29;;;;;;;8.93;5.93;;;;;;;;;;5100533;28;20034;-72
2021/06/11 01:30:03;;;;;;;10.43;5.70;;;;;;;;;;5115260;28;20461;-72
2021/06/11 01:32:29;;;;;;;5.93;5.40;;;;;;;;;;5115684;28;20161;-71
2021/06/11 01:34:55;;;;;;;12.93;6.47;;;;;;;;;;5115403;28;20030;-72
2021/06/11 01:37:22;;;;;;;6.72;6.07;;;;;;;;;;5116100;28;20099;-72
2021/06/11 01:39:50;;;;;;;6.93;6.15;;;;;;;;;;5115290;28;20030;-72
2021/06/11 01:42:17;;;;;;;9.23;6.80;;;;;;;;;;5114901;28;20118;-72
2021/06/11 01:44:43;;;;;;;6.30;5.70;;;;;;;;;;5115172;28;20019;-72
2021/06/11 01:47:09;;;;;;;9.98;6.30;;;;;;;;;;5115257;28;20055;-72
2021/06/11 01:49:35;;;;;;;5.88;5.30;;;;;;;;;;5114878;28;20370;-72
2021/06/11 01:52:01;;;;;;;6.15;5.65;;;;;;;;;;5115328;28;20437;-72
2021/06/11 01:54:27;;;;;;;10.13;6.85;;;;;;;;;;5114857;28;20073;-71
2021/06/11 01:56:53;;;;;;;5.65;5.15;;;;;;;;;;5114710;28;20106;-72
2021/06/11 01:59:20;;;;;;;10.15;5.88;;;;;;;;;;5115330;28;20036;-72
2021/06/11 02:01:46;;;;;;;7.57;5.80;;;;;;;;;;5114949;28;20496;-71
2021/06/11 02:04:12;;;;;;;6.18;5.55;;;;;;;;;;5114977;28;20024;-72
2021/06/11 02:06:40;;;;;;;9.80;5.85;;;;;;;;;;5114917;28;20037;-72
2021/06/11 02:09:06;;;;;;;9.05;5.43;;;;;;;;;;5114589;28;20072;-72
2021/06/11 02:11:32;;;;;;;8.95;6.30;;;;;;;;;;5114648;28;20024;-72
2021/06/11 02:13:59;;;;;;;8.77;6.57;;;;;;;;;;5114950;28;20459;-72
2021/06/11 02:16:25;;;;;;;5.72;5.22;;;;;;;;;;5115080;28;20111;-72
2021/06/11 02:18:51;;;;;;;9.07;6.00;;;;;;;;;;5114235;28;20023;-72
2021/06/11 02:21:18;;;;;;;6.95;6.30;;;;;;;;;;5114243;28;20028;-73
2021/06/11 02:23:44;;;;;;;5.97;5.30;;;;;;;;;;5114702;28;20032;-72
2021/06/11 02:26:10;;;;;;;5.88;5.35;;;;;;;;;;5114385;28;20027;-72
2021/06/11 02:28:37;;;;;;;6.28;4.72;;;;;;;;;;5114412;28;20055;-72
2021/06/11 02:31:03;;;;;;;7.82;5.60;;;;;;;;;;5114303;28;20088;-73
2021/06/11 02:33:29;;;;;;;7.60;5.88;;;;;;;;;;5114954;28;20035;-72
2021/06/11 02:35:55;;;;;;;10.38;6.35;;;;;;;;;;5114223;28;20070;-72
2021/06/11 02:38:21;;;;;;;6.50;5.15;;;;;;;;;;5114730;28;20019;-72
2021/06/11 02:40:48;;;;;;;5.85;5.35;;;;;;;;;;5113932;28;20111;-72
2021/06/11 02:43:14;;;;;;;7.53;6.35;;;;;;;;;;5114878;28;20084;-72
2021/06/11 02:46:00;;;;;;;8.68;5.38;;;;;;;;;;5114685;28;20031;-72
2021/06/11 02:48:34;;;;;;;7.72;6.57;;;;;;;;;;5099270;28;20030;-72
2021/06/11 02:51:02;;;;;;;8.65;5.63;;;;;;;;;;5114375;28;20048;-72
2021/06/11 02:53:29;;;;;;;5.80;5.10;;;;;;;;;;5114573;28;20035;-71
2021/06/11 02:56:11;;;;;;;5.70;5.20;;;;;;;;;;5114419;28;20106;-72
2021/06/11 02:58:54;;;;;;;14.35;5.68;;;;;;;;;;5113925;28;20437;-72
2021/06/11 03:01:20;;;;;;;7.70;5.68;;;;;;;;;;5114379;28;20472;-72
2021/06/11 03:03:46;;;;;;;6.13;5.30;;;;;;;;;;5114034;28;20030;-73
2021/06/11 03:06:13;;;;;;;6.13;5.57;;;;;;;;;;5114192;28;20036;-72
2021/06/11 03:08:41;;;;;;;9.13;5.57;;;;;;;;;;5113824;28;20031;-73
2021/06/11 03:11:10;;;;;;;5.70;5.15;;;;;;;;;;5113949;28;20077;-72
2021/06/11 03:13:36;;;;;;;7.32;5.50;;;;;;;;;;5114077;28;20118;-72
2021/06/11 03:16:03;;;;;;;6.78;5.32;;;;;;;;;;5114801;28;20027;-72
2021/06/11 03:18:34;;;;;;;7.10;5.68;;;;;;;;;;5113861;28;20384;-72
2021/06/11 03:21:04;;;;;;;6.82;6.13;;;;;;;;;;5114665;28;20042;-72
2021/06/11 03:23:30;;;;;;;6.00;4.93;;;;;;;;;;5114447;28;20020;-71
2021/06/11 03:25:58;;;;;;;6.53;5.45;;;;;;;;;;5113828;28;20028;-72
2021/06/11 03:28:27;;;;;;;5.57;5.00;;;;;;;;;;5113847;28;20109;-72
2021/06/11 03:30:55;;;;;;;13.45;5.78;;;;;;;;;;5113240;28;20019;-73
2021/06/11 03:33:22;;;;;;;9.43;5.60;;;;;;;;;;5113763;28;20434;-72
2021/06/11 03:35:50;;;;;;;9.13;5.90;;;;;;;;;;5114238;28;20045;-72
2021/06/11 03:38:17;;;;;;;8.25;4.88;;;;;;;;;;5114041;28;20020;-72
2021/06/11 03:40:43;;;;;;;9.38;5.68;;;;;;;;;;5113645;28;20073;-72
2021/06/11 03:43:09;;;;;;;7.00;5.38;;;;;;;;;;5115368;28;20038;-72
2021/06/11 03:45:36;;;;;;;6.43;5.75;;;;;;;;;;5117265;28;20027;-73
2021/06/11 03:48:02;;;;;;;7.47;4.97;;;;;;;;;;5117316;28;20023;-73
2021/06/11 03:50:28;;;;;;;6.30;4.72;;;;;;;;;;5117325;28;20493;-72
2021/06/11 03:52:56;;;;;;;6.68;5.93;;;;;;;;;;5117303;28;20032;-72
2021/06/11 03:55:23;;;;;;;9.18;5.30;;;;;;;;;;5117263;28;20019;-73
2021/06/11 03:57:53;;;;;;;9.05;5.57;;;;;;;;;;5117602;28;20038;-72
2021/06/11 04:00:19;;;;;;;11.75;5.45;;;;;;;;;;5117211;28;20043;-71
2021/06/11 04:02:46;;;;;;;6.00;5.40;;;;;;;;;;5117151;28;20027;-72
2021/06/11 04:05:12;;;;;;;10.13;6.20;;;;;;;;;;5117695;28;20033;-72
2021/06/11 04:07:41;;;;;;;12.02;6.78;;;;;;;;;;5117089;28;20190;-73
2021/06/11 04:10:09;;;;;;;14.20;5.88;;;;;;;;;;5117134;28;20423;-72
2021/06/11 04:12:37;;;;;;;11.32;6.20;;;;;;;;;;5116357;28;20015;-72
2021/06/11 04:15:04;;;;;;;6.35;5.75;;;;;;;;;;5117058;28;20023;-72
2021/06/11 04:17:31;;;;;;;7.38;5.93;;;;;;;;;;5117155;28;20049;-72
2021/06/11 04:19:58;;;;;;;7.82;5.50;;;;;;;;;;5116497;28;20042;-72
2021/06/11 04:22:27;;;;;;;5.53;5.03;;;;;;;;;;5117044;28;20066;-72
2021/06/11 04:24:53;;;;;;;5.70;5.20;;;;;;;;;;5116205;28;20028;-72
2021/06/11 04:27:19;;;;;;;6.78;5.65;;;;;;;;;;5116438;28;20072;-72
2021/06/11 04:29:46;;;;;;;5.65;4.80;;;;;;;;;;5116786;28;20228;-73
2021/06/11 04:32:12;;;;;;;5.95;5.13;;;;;;;;;;5117191;28;20110;-72
2021/06/11 04:34:38;;;;;;;10.48;6.15;;;;;;;;;;5116616;28;20072;-72
2021/06/11 04:37:04;;;;;;;6.88;5.30;;;;;;;;;;5117038;28;20457;-72
2021/06/11 04:39:30;;;;;;;13.23;5.13;;;;;;;;;;5116704;28;20028;-72
2021/06/11 04:41:56;;;;;;;6.65;4.85;;;;;;;;;;5116027;28;20032;-72
2021/06/11 04:44:23;;;;;;;5.90;5.00;;;;;;;;;;5116503;28;20034;-72
2021/06/11 04:46:49;;;;;;;8.23;5.50;;;;;;;;;;5115676;28;20382;-72
2021/06/11 04:49:15;;;;;;;15.23;5.18;;;;;;;;;;5113329;28;20073;-73
2021/06/11 04:51:41;;;;;;;8.73;5.25;;;;;;;;;;5116091;28;20051;-71
2021/06/11 04:54:07;;;;;;;8.73;5.28;;;;;;;;;;5114762;28;20384;-72
2021/06/11 04:56:33;;;;;;;5.78;5.28;;;;;;;;;;5115661;28;20555;-72
2021/06/11 04:59:01;;;;;;;7.05;4.50;;;;;;;;;;5116274;28;20048;-71
2021/06/11 05:01:27;;;;;;;5.03;4.53;;;;;;;;;;5116856;28;20020;-71
2021/06/11 05:03:53;;;;;;;5.63;4.43;;;;;;;;;;5115660;28;20035;-72
2021/06/11 05:06:19;;;;;;;7.25;5.20;;;;;;;;;;5116259;28;20051;-71
2021/06/11 05:08:45;;;;;;;12.20;5.78;;;;;;;;;;5115770;28;20031;-72
2021/06/11 05:11:11;;;;;;;13.82;5.28;;;;;;;;;;5116346;28;20023;-72
2021/06/11 05:13:37;;;;;;;6.20;5.30;;;;;;;;;;5116631;28;20485;-72
2021/06/11 05:16:04;;;;;;;6.97;5.10;;;;;;;;;;5116978;28;20020;-71
2021/06/11 05:18:30;;;;;;;15.40;6.45;;;;;;;;;;5116024;28;20034;-72
2021/06/11 05:20:56;;;;;;;21.38;5.95;;;;;;;;;;5116806;28;20024;-69
2021/06/11 05:23:22;;;;;;;15.18;7.82;;;;;;;;;;5116806;28;20445;-69
2021/06/11 05:25:48;;;;;;;18.35;10.70;;;;;;;;;;5114428;28;20024;-69
2021/06/11 05:28:15;;;;;;;19.83;10.68;;;;;;;;;;5116859;28;20054;-68
2021/06/11 05:30:42;;;;;;;15.90;9.55;;;;;;;;;;5116114;28;20024;-69
2021/06/11 05:33:08;;;;;;;15.65;7.55;;;;;;;;;;5116996;28;20035;-69
2021/06/11 05:35:34;;;;;;;14.07;8.35;;;;;;;;;;5116625;28;20469;-69
2021/06/11 05:38:04;;;;;;;19.00;9.23;;;;;;;;;;5116213;28;20035;-69
2021/06/11 05:40:30;;;;;;;13.65;8.05;;;;;;;;;;5115778;28;20031;-69
2021/06/11 05:42:57;;;;;;;19.48;8.32;;;;;;;;;;5117115;28;20035;-69
2021/06/11 05:45:23;;;;;;;15.85;8.93;;;;;;;;;;5116088;28;20024;-69
2021/06/11 05:47:49;;;;;;;10.18;7.65;;;;;;;;;;5115962;28;20068;-69
2021/06/11 05:50:16;;;;;;;14.80;7.90;;;;;;;;;;5116024;28;20051;-70
2021/06/11 05:52:42;;;;;;;11.23;6.97;;;;;;;;;;5115803;28;20368;-69
2021/06/11 05:55:08;;;;;;;10.70;8.05;;;;;;;;;;5115540;28;20084;-69
2021/06/11 05:57:34;;;;;;;11.02;6.32;;;;;;;;;;5115394;28;20031;-69
2021/06/11 06:00:02;;;;;;;10.00;6.90;;;;;;;;;;5115010;28;20551;-69
2021/06/11 06:02:28;;;;;;;7.95;6.97;;;;;;;;;;5115016;28;20071;-69
2021/06/11 06:04:54;;;;;;;9.13;6.72;;;;;;;;;;5114939;28;20473;-69
2021/06/11 06:07:20;;;;;;;16.58;7.95;;;;;;;;;;5114709;28;20427;-68
2021/06/11 06:09:46;;;;;;;9.25;7.18;;;;;;;;;;5115087;28;20024;-69
2021/06/11 06:12:12;;;;;;;13.75;5.82;;;;;;;;;;5115862;28;20028;-68
2021/06/11 06:14:38;;;;;;;10.15;7.18;;;;;;;;;;5114495;28;20365;-69
2021/06/11 06:17:04;;;;;;;7.70;6.40;;;;;;;;;;5115071;28;20024;-68
2021/06/11 06:19:30;;;;;;;6.93;6.22;;;;;;;;;;5115351;28;20032;-69
2021/06/11 06:21:57;;;;;;;10.45;6.40;;;;;;;;;;5115337;28;20515;-69
2021/06/11 06:24:23;;;;;;;10.55;5.35;;;;;;;;;;5114834;28;20059;-69
2021/06/11 06:26:49;;;;;;;12.77;6.47;;;;;;;;;;5114848;28;20027;-69
2021/06/11 06:29:15;;;;;;;11.52;6.28;;;;;;;;;;5115541;28;20110;-69
2021/06/11 06:31:41;;;;;;;7.45;5.97;;;;;;;;;;5115514;28;20031;-69
2021/06/11 06:34:07;;;;;;;8.73;5.53;;;;;;;;;;5115488;28;20038;-69
2021/06/11 06:36:33;;;;;;;7.47;5.95;;;;;;;;;;5115419;28;20028;-69
2021/06/11 06:39:01;;;;;;;11.73;5.93;;;;;;;;;;5114976;28;20027;-70
2021/06/11 06:41:28;;;;;;;7.93;5.30;;;;;;;;;;5115027;28;20365;-69
2021/06/11 06:43:54;;;;;;;11.32;5.82;;;;;;;;;;5115248;28;20020;-69
2021/06/11 06:46:22;;;;;;;7.93;6.60;;;;;;;;;;5115569;28;20034;-69
2021/06/11 06:48:49;;;;;;;7.47;5.57;;;;;;;;;;5115282;28;20032;-69
2021/06/11 06:51:16;;;;;;;7.65;5.15;;;;;;;;;;5115558;28;20048;-70
2021/06/11 06:53:42;;;;;;;11.85;6.28;;;;;;;;;;5115105;28;20026;-70
2021/06/11 06:56:08;;;;;;;9.15;6.30;;;;;;;;;;5114812;28;20480;-70
2021/06/11 06:58:36;;;;;;;7.32;5.38;;;;;;;;;;5114277;28;20024;-69
2021/06/11 07:01:02;;;;;;;10.38;5.68;;;;;;;;;;5114400;28;20031;-70
2021/06/11 07:03:28;;;;;;;11.43;6.00;;;;;;;;;;5114329;28;20036;-69
2021/06/11 07:05:54;;;;;;;27.42;5.25;;;;;;;;;;5114290;28;20595;-69
2021/06/11 07:08:20;;;;;;;13.70;4.78;;;;;;;;;;5113566;28;20028;-70
2021/06/11 07:10:46;;;;;;;12.00;5.95;;;;;;;;;;5114247;28;20032;-70
2021/06/11 07:13:13;;;;;;;8.90;5.85;;;;;;;;;;5114824;28;20525;-70
2021/06/11 07:15:39;;;;;;;9.18;5.47;;;;;;;;;;5114656;28;20034;-70
2021/06/11 07:18:05;;;;;;;10.65;5.30;;;;;;;;;;5115753;28;20027;-70
2021/06/11 07:20:31;;;;;;;8.43;5.43;;;;;;;;;;5118454;28;20040;-70
2021/06/11 07:22:57;;;;;;;6.82;4.75;;;;;;;;;;5117682;28;20032;-69
2021/06/11 07:25:23;;;;;;;7.68;5.18;;;;;;;;;;5118174;28;20027;-70
2021/06/11 07:27:49;;;;;;;6.78;4.53;;;;;;;;;;5117759;28;20080;-69
2021/06/11 07:30:18;;;;;;;5.32;4.53;;;;;;;;;;5117935;28;20066;-69
2021/06/11 07:32:44;;;;;;;6.88;5.45;;;;;;;;;;5117805;28;20385;-69
2021/06/11 07:35:11;;;;;;;11.07;6.13;;;;;;;;;;5117806;28;20047;-69
2021/06/11 07:37:37;;;;;;;6.97;5.05;;;;;;;;;;5117630;28;20103;-70
2021/06/11 07:40:05;;;;;;;6.38;5.25;;;;;;;;;;5117724;28;20100;-70
2021/06/11 07:42:31;;;;;;;8.63;4.80;;;;;;;;;;5118054;28;20532;-71
2021/06/11 07:44:57;;;;;;;5.45;4.95;;;;;;;;;;5118057;28;20031;-70
2021/06/11 07:47:23;;;;;;;4.60;3.90;;;;;;;;;;5117729;28;20024;-69
2021/06/11 07:49:49;;;;;;;5.00;4.55;;;;;;;;;;5117369;28;20480;-69
2021/06/11 07:52:15;;;;;;;6.97;5.05;;;;;;;;;;5117372;28;20023;-69
2021/06/11 07:54:41;;;;;;;10.15;5.40;;;;;;;;;;5117388;28;20080;-70
2021/06/11 07:57:07;;;;;;;7.88;5.43;;;;;;;;;;5117242;28;20473;-69
2021/06/11 07:59:33;;;;;;;5.93;4.50;;;;;;;;;;5117925;28;20078;-70
2021/06/11 08:01:59;;;;;;;19.27;4.38;;;;;;;;;;5117533;28;20106;-70
2021/06/11 08:04:26;;;;;;;6.20;4.18;;;;;;;;;;5117273;28;20023;-70
2021/06/11 08:06:52;;;;;;;5.22;4.43;;;;;;;;;;5116861;28;20062;-70
2021/06/11 08:09:18;;;;;;;6.07;4.13;;;;;;;;;;5117037;28;20518;-70
2021/06/11 08:11:44;;;;;;;8.32;3.60;;;;;;;;;;5117533;28;20059;-70
2021/06/11 08:14:11;;;;;;;6.13;4.38;;;;;;;;;;5117314;28;20032;-70
2021/06/11 08:16:37;;;;;;;5.07;4.55;;;;;;;;;;5116655;28;20051;-69
2021/06/11 08:19:03;;;;;;;7.82;3.88;;;;;;;;;;5117080;28;20031;-69
2021/06/11 08:21:29;;;;;;;10.00;5.03;;;;;;;;;;5116829;28;20039;-70
2021/06/11 08:23:55;;;;;;;5.38;4.20;;;;;;;;;;5117245;28;20070;-69
2021/06/11 08:26:21;;;;;;;5.03;4.50;;;;;;;;;;5117018;28;20039;-70
2021/06/11 08:28:47;;;;;;;5.75;4.90;;;;;;;;;;5116367;28;20026;-70
2021/06/11 08:31:13;;;;;;;8.13;4.13;;;;;;;;;;5116565;28;20465;-69
2021/06/11 08:33:41;;;;;;;10.18;4.80;;;;;;;;;;5117220;28;20144;-70
2021/06/11 08:36:07;;;;;;;6.78;4.90;;;;;;;;;;5118651;28;20114;-70
2021/06/11 08:38:33;;;;;;;6.30;4.35;;;;;;;;;;5113687;28;20495;-71
2021/06/11 08:40:59;;;;;;;4.85;4.45;;;;;;;;;;5115765;28;20031;-71
2021/06/11 08:43:25;;;;;;;12.52;4.47;;;;;;;;;;5114939;28;20094;-70
2021/06/11 08:45:51;;;;;;;14.38;4.47;;;;;;;;;;5115246;28;20019;-70
2021/06/11 08:48:18;;;;;;;6.82;4.22;;;;;;;;;;5115634;28;20028;-70
2021/06/11 08:50:44;;;;;;;13.80;5.35;;;;;;;;;;5115024;28;20043;-71
2021/06/11 08:53:10;;;;;;;4.88;3.78;;;;;;;;;;5115630;28;20016;-70
2021/06/11 08:55:36;;;;;;;14.15;4.93;;;;;;;;;;5116037;28;20028;-70
2021/06/11 08:58:03;;;;;;;6.07;3.80;;;;;;;;;;5115986;28;20025;-69
2021/06/11 09:00:32;;;;;;;10.45;4.35;;;;;;;;;;5116060;28;20035;-69
2021/06/11 09:03:17;;;;;;;5.70;3.75;;;;;;;;;;5116443;28;20452;-70
2021/06/11 09:05:45;;;;;;;5.75;4.47;;;;;;;;;;5116005;28;20019;-70
2021/06/11 09:08:12;;;;;;;4.20;3.80;;;;;;;;;;5116324;28;20032;-71
2021/06/11 09:10:38;;;;;;;4.00;3.60;;;;;;;;;;5115870;28;20473;-71
2021/06/11 09:13:05;;;;;;;4.00;3.35;;;;;;;;;;5115523;28;20114;-70
2021/06/11 09:15:31;;;;;;;7.85;3.88;;;;;;;;;;5116021;28;20031;-69
2021/06/11 09:17:57;;;;;;;6.35;4.53;;;;;;;;;;5115482;28;20020;-72
2021/06/11 09:20:27;;;;;;;5.53;3.90;;;;;;;;;;5116771;28;20151;-70
2021/06/11 09:22:54;;;;;;;6.45;3.97;;;;;;;;;;5116089;28;20026;-70
2021/06/11 09:25:23;;;;;;;4.85;3.88;;;;;;;;;;5115255;28;20020;-71
2021/06/11 09:27:50;;;;;;;4.82;4.13;;;;;;;;;;5115533;28;20085;-70
2021/06/11 09:30:16;;;;;;;4.43;4.03;;;;;;;;;;5115642;28;20038;-71
2021/06/11 09:32:42;;;;;;;6.82;4.30;;;;;;;;;;5115419;28;20088;-71
2021/06/11 09:35:09;;;;;;;9.15;4.20;;;;;;;;;;5116218;28;20487;-72
2021/06/11 09:37:37;;;;;;;7.03;4.13;;;;;;;;;;5116193;28;20500;-70
2021/06/11 09:40:06;;;;;;;4.82;4.32;;;;;;;;;;5115685;28;20127;-68
2021/06/11 09:42:33;;;;;;;9.02;4.05;;;;;;;;;;5114769;28;20027;-69
2021/06/11 09:45:01;;;;;;;4.35;3.95;;;;;;;;;;5114814;28;20033;-70
2021/06/11 09:47:38;;;;;;;9.40;5.18;;;;;;;;;;5115657;28;20024;-70
2021/06/11 09:50:06;;;;;;;5.50;4.15;;;;;;;;;;5115640;28;20057;-69
2021/06/11 09:52:36;;;;;;;4.63;4.22;;;;;;;;;;5115655;28;20059;-69
2021/06/11 09:55:04;;;;;;;4.43;4.00;;;;;;;;;;5115368;28;20145;-69
2021/06/11 09:57:33;;;;;;;6.03;3.92;;;;;;;;;;5114963;28;20023;-71
2021/06/11 10:00:00;;;;;;;4.40;3.58;;;;;;;;;;5114981;28;20035;-71
2021/06/11 10:02:26;;;;;;;5.18;3.67;;;;;;;;;;5116021;28;20028;-72
2021/06/11 10:04:52;;;;;;;7.35;4.32;;;;;;;;;;5113531;28;20020;-70
2021/06/11 10:07:18;;;;;;;3.88;3.58;;;;;;;;;;5113393;28;20030;-70
2021/06/11 10:09:44;;;;;;;5.97;4.60;;;;;;;;;;5114761;28;20053;-71
2021/06/11 10:12:11;;;;;;;7.88;4.68;;;;;;;;;;5115209;28;20357;-74
2021/06/11 10:14:37;;;;;;;12.05;4.40;;;;;;;;;;5115321;28;20020;-71
2021/06/11 10:17:03;;;;;;;9.60;4.10;;;;;;;;;;5114269;28;20020;-71
2021/06/11 10:19:29;;;;;;;5.18;3.67;;;;;;;;;;5114281;28;20176;-71
2021/06/11 10:21:55;;;;;;;4.85;4.10;;;;;;;;;;5114709;28;20015;-70
2021/06/11 10:24:21;;;;;;;4.85;3.90;;;;;;;;;;5114903;28;20020;-70
2021/06/11 10:26:48;;;;;;;7.22;4.00;;;;;;;;;;5114445;28;20023;-69
2021/06/11 10:29:15;;;;;;;6.65;4.20;;;;;;;;;;5114477;28;20034;-69
2021/06/11 10:31:41;;;;;;;5.03;3.63;;;;;;;;;;5114280;28;20024;-69
2021/06/11 10:34:07;;;;;;;9.43;4.50;;;;;;;;;;5113928;28;20028;-69
2021/06/11 10:36:36;;;;;;;4.45;4.05;;;;;;;;;;5113923;28;20028;-69
2021/06/11 10:39:23;;;;;;;6.10;3.92;;;;;;;;;;5113455;28;20049;-68
2021/06/11 10:41:57;;;;;;;5.70;3.50;;;;;;;;;;5098696;28;20111;-69
2021/06/11 10:44:42;;;;;;;4.65;4.07;;;;;;;;;;5112976;28;20031;-68
2021/06/11 10:47:25;;;;;;;4.53;3.58;;;;;;;;;;5113907;28;20369;-69
2021/06/11 10:50:05;;;;;;;8.63;3.60;;;;;;;;;;5113606;28;20051;-69
2021/06/11 10:52:37;;;;;;;3.65;3.28;;;;;;;;;;5115990;28;20020;-70
2021/06/11 10:55:25;;;;;;;4.95;3.45;;;;;;;;;;5118738;28;20023;-69
2021/06/11 10:58:11;;;;;;;2.97;2.67;;;;;;;;;;5103192;28;20023;-69
2021/06/11 11:00:37;;;;;;;6.40;3.60;;;;;;;;;;5102342;28;20052;-69
2021/06/11 11:03:05;;;;;;;4.40;3.45;;;;;;;;;;5118497;28;20024;-69
2021/06/11 11:05:34;;;;;;;3.25;2.97;;;;;;;;;;5118051;28;20030;-69
2021/06/11 11:08:01;;;;;;;4.65;3.47;;;;;;;;;;5117565;28;20034;-69
2021/06/11 11:10:47;;;;;;;4.38;3.42;;;;;;;;;;5117596;28;20028;-69
2021/06/11 11:13:16;;;;;;;8.23;4.20;;;;;;;;;;5103426;28;20059;-69
2021/06/11 11:15:44;;;;;;;4.20;3.75;;;;;;;;;;5117733;28;20365;-69
2021/06/11 11:18:11;;;;;;;6.65;3.90;;;;;;;;;;5117533;28;20054;-71
2021/06/11 11:20:37;;;;;;;6.07;3.92;;;;;;;;;;5117877;28;20035;-69
2021/06/11 11:23:05;;;;;;;6.38;3.83;;;;;;;;;;5117843;28;20055;-68
2021/06/11 11:25:32;;;;;;;5.72;3.70;;;;;;;;;;5117302;28;20401;-69
2021/06/11 11:27:59;;;;;;;7.22;3.72;;;;;;;;;;5117897;28;20024;-69
2021/06/11 11:30:26;;;;;;;4.97;3.60;;;;;;;;;;5117547;28;20072;-69
2021/06/11 11:32:53;;;;;;;4.40;3.72;;;;;;;;;;5116264;28;20107;-69
2021/06/11 11:35:19;;;;;;;21.50;4.28;;;;;;;;;;5115987;28;20011;-69
2021/06/11 11:37:48;;;;;;;5.63;4.10;;;;;;;;;;5117118;28;20024;-69
2021/06/11 11:40:15;;;;;;;9.10;3.65;;;;;;;;;;5116339;28;20385;-70
2021/06/11 11:42:41;;;;;;;8.70;3.55;;;;;;;;;;5117009;28;20054;-69
2021/06/11 11:45:07;;;;;;;6.93;4.15;;;;;;;;;;5116992;28;20020;-69
2021/06/11 11:47:33;;;;;;;16.10;4.65;;;;;;;;;;5117113;28;20318;-70
2021/06/11 11:49:59;;;;;;;9.48;3.78;;;;;;;;;;5116406;28;20055;-70
2021/06/11 11:52:25;;;;;;;7.10;4.22;;;;;;;;;;5116617;28;20023;-69
2021/06/11 11:54:51;;;;;;;7.85;4.30;;;;;;;;;;5116081;28;20096;-69
2021/06/11 11:57:17;;;;;;;15.63;4.70;;;;;;;;;;5116988;28;20088;-71
2021/06/11 11:59:43;;;;;;;7.40;3.50;;;;;;;;;;5116238;28;20085;-70
2021/06/11 12:02:10;;;;;;;5.78;3.28;;;;;;;;;;5107478;28;20434;-71
2021/06/11 12:04:36;;;;;;;5.63;3.35;;;;;;;;;;5104900;28;20373;-71
2021/06/11 12:07:02;;;;;;;9.98;3.65;;;;;;;;;;5104184;28;20031;-71
2021/06/11 12:09:28;;;;;;;17.92;3.97;;;;;;;;;;5105140;28;20023;-70
2021/06/11 12:11:54;;;;;;;8.68;4.53;;;;;;;;;;5105350;28;20108;-70
2021/06/11 12:14:20;;;;;;;11.02;3.25;;;;;;;;;;5115306;28;20032;-71
2021/06/11 12:16:46;;;;;;;8.70;3.60;;;;;;;;;;5103200;28;20012;-72
2021/06/11 12:19:12;;;;;;;5.43;3.28;;;;;;;;;;5103482;28;20028;-71
2021/06/11 12:21:38;;;;;;;4.68;2.95;;;;;;;;;;5105699;28;20020;-70
2021/06/11 12:24:05;;;;;;;4.40;3.30;;;;;;;;;;5103925;28;20440;-72
2021/06/11 12:26:31;;;;;;;6.18;3.33;;;;;;;;;;5106508;28;20041;-69
2021/06/11 12:28:57;;;;;;;11.35;4.43;;;;;;;;;;5103494;28;20031;-71
2021/06/11 12:31:23;;;;;;;7.43;3.35;;;;;;;;;;5105306;28;20051;-70
2021/06/11 12:33:49;;;;;;;9.85;3.30;;;;;;;;;;5104197;28;20107;-69
2021/06/11 12:36:15;;;;;;;5.93;3.17;;;;;;;;;;5103248;28;20075;-72
2021/06/11 12:38:41;;;;;;;9.13;3.40;;;;;;;;;;5104808;28;20123;-71
2021/06/11 12:41:10;;;;;;;7.03;3.42;;;;;;;;;;5104441;28;20024;-71
2021/06/11 12:46:23;;;;;;;4.07;3.05;;;;;;;;;;5091722;28;20103;-72
2021/06/11 12:48:49;;;;;;;9.95;2.83;;;;;;;;;;5105404;28;20020;-72
2021/06/11 12:51:15;;;;;;;5.18;3.55;;;;;;;;;;5106391;28;20048;-70
2021/06/11 12:53:41;;;;;;;5.13;2.92;;;;;;;;;;5109491;28;20761;-72
2021/06/11 12:56:07;;;;;;;3.45;2.83;;;;;;;;;;5102891;28;20020;-71
2021/06/11 12:58:33;;;;;;;3.25;2.58;;;;;;;;;;5104232;28;20020;-72
2021/06/11 13:01:00;;;;;;;4.20;3.35;;;;;;;;;;5102012;28;20038;-70
2021/06/11 13:03:26;;;;;;;9.30;3.13;;;;;;;;;;5101785;28;20107;-74
2021/06/11 13:05:52;;;;;;;3.22;2.92;;;;;;;;;;5101887;28;20055;-72
2021/06/11 13:08:19;;;;;;;3.05;2.78;;;;;;;;;;5105106;28;20019;-71
2021/06/11 13:10:45;;;;;;;3.95;3.30;;;;;;;;;;5099180;28;20028;-70
2021/06/11 13:13:11;;;;;;;3.58;2.47;;;;;;;;;;5094868;28;20024;-71
2021/06/11 13:15:37;;;;;;;51.95;3.80;;;;;;;;;;5093608;28;20048;-72
2021/06/11 13:18:04;;;;;;;11.85;3.63;;;;;;;;;;5095376;28;20028;-69
2021/06/11 13:20:30;;;;;;;8.20;3.47;;;;;;;;;;5094294;28;20418;-69
2021/06/11 13:22:56;;;;;;;9.45;4.25;;;;;;;;;;5094429;28;20084;-68
2021/06/11 13:25:22;;;;;;;12.48;5.68;;;;;;;;;;5096236;28;20347;-68
2021/06/11 13:27:48;;;;;;;23.73;9.60;;;;;;;;;;5095947;28;20020;-69
2021/06/11 13:30:15;;;;;;;21.13;7.78;;;;;;;;;;5094255;28;20020;-69
2021/06/11 13:32:41;;;;;;;40.92;9.90;;;;;;;;;;5094200;28;20024;-69
2021/06/11 13:35:08;;;;;;;29.00;12.05;;;;;;;;;;5093684;28;20027;-69
2021/06/11 13:37:34;;;;;;;36.55;13.07;;;;;;;;;;5093920;28;20036;-69
2021/06/11 13:40:00;;;;;;;32.55;12.73;;;;;;;;;;5094148;28;20036;-70
2021/06/11 13:42:26;;;;;;;30.15;11.75;;;;;;;;;;5093803;28;20066;-69
2021/06/11 13:44:52;;;;;;;38.65;14.27;;;;;;;;;;5093766;28;20415;-69
2021/06/11 13:47:19;;;;;;;37.03;15.60;;;;;;;;;;5094420;28;20028;-69
2021/06/11 13:49:45;;;;;;;29.40;13.00;;;;;;;;;;5093414;28;20028;-69
2021/06/11 13:52:11;;;;;;;38.30;13.80;;;;;;;;;;5094233;28;20016;-68
2021/06/11 13:54:37;;;;;;;34.13;12.60;;;;;;;;;;5093819;28;20360;-68
2021/06/11 13:57:03;;;;;;;30.35;12.55;;;;;;;;;;5094147;28;20027;-69
2021/06/11 13:59:30;;;;;;;24.95;12.32;;;;;;;;;;5094010;28;20028;-68
2021/06/11 14:01:56;;;;;;;27.80;11.85;;;;;;;;;;5093868;28;20035;-68
2021/06/11 14:04:22;;;;;;;18.20;9.77;;;;;;;;;;5093596;28;20343;-68
2021/06/11 14:06:48;;;;;;;21.98;10.00;;;;;;;;;;5093605;28;20024;-68
2021/06/11 14:09:15;;;;;;;23.52;9.75;;;;;;;;;;5093753;28;20085;-69
2021/06/11 14:11:41;;;;;;;20.25;8.50;;;;;;;;;;5093969;28;20110;-68
2021/06/11 14:14:08;;;;;;;17.25;8.13;;;;;;;;;;5093454;28;20035;-68
2021/06/11 14:16:34;;;;;;;22.58;9.40;;;;;;;;;;5093450;28;20027;-68
2021/06/11 14:19:02;;;;;;;13.90;8.43;;;;;;;;;;5093472;28;20377;-68
2021/06/11 14:21:29;;;;;;;17.23;8.35;;;;;;;;;;5092648;28;20020;-68
2021/06/11 14:23:55;;;;;;;17.45;8.35;;;;;;;;;;5093345;28;20028;-68
2021/06/11 14:26:21;;;;;;;24.08;9.10;;;;;;;;;;5093634;28;20361;-69
2021/06/11 14:28:47;;;;;;;15.50;8.38;;;;;;;;;;5093138;28;20028;-70
2021/06/11 14:31:13;;;;;;;23.67;8.27;;;;;;;;;;5094248;28;20024;-69
2021/06/11 14:33:40;;;;;;;16.23;8.27;;;;;;;;;;5093756;28;20028;-69
2021/06/11 14:36:06;;;;;;;15.05;7.55;;;;;;;;;;5093975;28;20489;-70
2021/06/11 14:38:32;;;;;;;16.67;8.60;;;;;;;;;;5094024;28;20016;-69
2021/06/11 14:40:59;;;;;;;17.13;7.72;;;;;;;;;;5093351;28;20035;-69